sensor_id;sensor_type;location;lat;lon;timestamp;pressure;altitude;pressure_sealevel;temperature;humidity
36254;BME280;22291;52.250;21.228;2023-08-01T00:02:18;99485.23;;;17.88;70.56
36254;BME280;22291;52.250;21.228;2023-08-01T00:04:46;99480.34;;;17.88;70.51
36254;BME280;22291;52.250;21.228;2023-08-01T00:07:13;99483.64;;;17.87;70.64
36254;BME280;22291;52.250;21.228;2023-08-01T00:09:40;99482.87;;;17.87;70.45
36254;BME280;22291;52.250;21.228;2023-08-01T00:12:09;99476.38;;;17.85;70.71
36254;BME280;22291;52.250;21.228;2023-08-01T00:14:38;99484.17;;;17.83;70.91
36254;BME280;22291;52.250;21.228;2023-08-01T00:17:07;99484.17;;;17.83;70.91
36254;BME280;22291;52.250;21.228;2023-08-01T00:19:34;99475.75;;;17.82;70.81
36254;BME280;22291;52.250;21.228;2023-08-01T00:22:01;99478.87;;;17.81;70.98
36254;BME280;22291;52.250;21.228;2023-08-01T00:24:28;99469.88;;;17.80;70.99
36254;BME280;22291;52.250;21.228;2023-08-01T00:26:55;99467.90;;;17.77;70.90
36254;BME280;22291;52.250;21.228;2023-08-01T00:39:06;99462.94;;;17.86;71.06
36254;BME280;22291;52.250;21.228;2023-08-01T00:41:35;99455.19;;;17.75;71.02
36254;BME280;22291;52.250;21.228;2023-08-01T00:44:04;99455.41;;;17.76;71.03
36254;BME280;22291;52.250;21.228;2023-08-01T00:46:32;99436.82;;;17.76;71.21
36254;BME280;22291;52.250;21.228;2023-08-01T00:49:00;99449.12;;;17.76;71.08
36254;BME280;22291;52.250;21.228;2023-08-01T15:10:06;98798.73;;;22.76;64.78
36254;BME280;22291;52.250;21.228;2023-08-01T15:12:35;98790.95;;;22.54;65.75
36254;BME280;22291;52.250;21.228;2023-08-01T15:15:01;98802.00;;;22.34;66.92
36254;BME280;22291;52.250;21.228;2023-08-01T15:17:32;98802.72;;;22.07;68.81
36254;BME280;22291;52.250;21.228;2023-08-01T15:19:58;98789.80;;;21.72;68.88
36254;BME280;22291;52.250;21.228;2023-08-01T15:22:25;98803.80;;;21.45;70.11
36254;BME280;22291;52.250;21.228;2023-08-01T15:24:51;98807.64;;;21.13;72.42
36254;BME280;22291;52.250;21.228;2023-08-01T15:27:17;98803.28;;;20.76;73.06
36254;BME280;22291;52.250;21.228;2023-08-01T15:29:45;98799.70;;;20.48;74.89
36254;BME280;22291;52.250;21.228;2023-08-01T15:32:13;98789.39;;;20.25;75.81
36254;BME280;22291;52.250;21.228;2023-08-01T15:34:39;98791.56;;;20.07;76.75
36254;BME280;22291;52.250;21.228;2023-08-01T15:37:09;98786.41;;;19.93;77.64
36254;BME280;22291;52.250;21.228;2023-08-01T15:39:36;98790.45;;;19.82;78.71
36254;BME280;22291;52.250;21.228;2023-08-01T15:42:07;98785.26;;;19.72;79.60
36254;BME280;22291;52.250;21.228;2023-08-01T15:44:33;98792.00;;;19.64;80.31
36254;BME280;22291;52.250;21.228;2023-08-01T15:46:59;98784.20;;;19.58;81.30
36254;BME280;22291;52.250;21.228;2023-08-01T15:49:25;98784.81;;;19.54;82.24
36254;BME280;22291;52.250;21.228;2023-08-01T15:51:51;98785.82;;;19.52;83.13
36254;BME280;22291;52.250;21.228;2023-08-01T15:54:17;98790.98;;;19.47;83.82
36254;BME280;22291;52.250;21.228;2023-08-01T15:56:44;98777.86;;;19.46;84.09
36254;BME280;22291;52.250;21.228;2023-08-01T15:59:10;98780.61;;;19.43;84.38
36254;BME280;22291;52.250;21.228;2023-08-01T16:01:36;98785.16;;;19.41;85.03
36254;BME280;22291;52.250;21.228;2023-08-01T16:04:06;98784.73;;;19.43;85.04
36254;BME280;22291;52.250;21.228;2023-08-01T16:06:32;98792.18;;;19.42;85.11
36254;BME280;22291;52.250;21.228;2023-08-01T16:08:58;98787.10;;;19.40;84.62
36254;BME280;22291;52.250;21.228;2023-08-01T16:11:25;98797.30;;;19.40;84.60
36254;BME280;22291;52.250;21.228;2023-08-01T16:13:51;98802.01;;;19.39;84.86
36254;BME280;22291;52.250;21.228;2023-08-01T16:16:17;98796.73;;;19.37;84.93
36254;BME280;22291;52.250;21.228;2023-08-01T16:18:43;98799.84;;;19.39;85.13
36254;BME280;22291;52.250;21.228;2023-08-01T16:21:09;98781.62;;;19.40;85.10
36254;BME280;22291;52.250;21.228;2023-08-01T16:23:37;98811.58;;;19.43;85.03
36254;BME280;22291;52.250;21.228;2023-08-01T16:26:04;98794.31;;;19.46;85.30
36254;BME280;22291;52.250;21.228;2023-08-01T16:28:32;98788.00;;;19.49;85.14
36254;BME280;22291;52.250;21.228;2023-08-01T16:30:58;98782.31;;;19.52;84.58
36254;BME280;22291;52.250;21.228;2023-08-01T16:33:25;98786.98;;;19.55;84.85
36254;BME280;22291;52.250;21.228;2023-08-01T16:35:52;98797.35;;;19.55;84.36
